Time;durP1;ratioP1;P1;durP2;ratioP2;P2;SDS_P1;SDS_P2;PMS_P1;PMS_P2;Temp;Humidity;BMP_temperature;BMP_pressure;BME280_temperature;BME280_humidity;BME280_pressure;Samples;Min_cycle;Max_cycle;Signal;HPM_P1;HPM_P2
2022/08/29 00:00:16;;;;;;;3.63;1.30;;;16.20;99.90;;;;;;5050713;28;20469;-50
2022/08/29 00:02:43;;;;;;;1.50;0.90;;;16.60;99.90;;;;;;5051250;28;20544;-50
2022/08/29 00:05:10;;;;;;;1.70;1.23;;;16.60;99.90;;;;;;5051536;28;20442;-50
2022/08/29 00:07:37;;;;;;;3.13;1.10;;;16.20;99.90;;;;;;5051179;28;20451;-50
2022/08/29 00:10:08;;;;;;;1.70;0.97;;;15.90;99.90;;;;;;5050352;28;20483;-51
2022/08/29 00:12:35;;;;;;;3.13;1.13;;;15.80;99.90;;;;;;5051408;28;20543;-51
2022/08/29 00:15:02;;;;;;;1.50;1.00;;;15.80;99.90;;;;;;5050631;28;20518;-50
2022/08/29 00:17:30;;;;;;;4.07;1.27;;;15.80;99.90;;;;;;5050886;28;21016;-51
2022/08/29 00:19:57;;;;;;;2.70;1.20;;;15.80;99.90;;;;;;5050276;28;20831;-50
2022/08/29 00:22:24;;;;;;;2.30;1.03;;;15.70;99.90;;;;;;5050495;28;20429;-50
2022/08/29 00:24:51;;;;;;;2.17;1.20;;;15.60;99.90;;;;;;5050953;28;20454;-50
2022/08/29 00:27:19;;;;;;;3.00;1.33;;;15.90;99.90;;;;;;5050321;28;20495;-50
2022/08/29 00:29:46;;;;;;;1.90;1.10;;;16.20;99.90;;;;;;5049753;28;20501;-50
2022/08/29 00:32:13;;;;;;;1.53;1.00;;;16.20;99.90;;;;;;5050460;28;20429;-50
2022/08/29 00:34:40;;;;;;;7.37;2.50;;;16.30;99.90;;;;;;5050940;28;20469;-50
2022/08/29 00:37:07;;;;;;;2.97;2.65;;;16.00;99.90;;;;;;5050137;28;20499;-51
2022/08/29 00:39:34;;;;;;;1.40;1.03;;;15.90;99.90;;;;;;5049489;28;20643;-50
2022/08/29 00:42:01;;;;;;;1.70;0.90;;;16.10;99.90;;;;;;5050361;28;20445;-50
2022/08/29 00:44:30;;;;;;;5.00;1.10;;;16.20;99.90;;;;;;5050411;28;20792;-49
2022/08/29 00:47:01;;;;;;;2.37;1.03;;;16.10;99.90;;;;;;5050387;28;20520;-50
2022/08/29 00:49:33;;;;;;;3.70;1.40;;;15.70;99.90;;;;;;5049609;28;20473;-50
2022/08/29 00:52:06;;;;;;;2.93;1.33;;;15.90;99.90;;;;;;5050099;28;20448;-51
2022/08/29 00:54:33;;;;;;;3.15;1.20;;;16.00;99.90;;;;;;5050215;28;20916;-50
2022/08/29 00:57:01;;;;;;;3.17;1.20;;;16.10;99.90;;;;;;5050363;28;20359;-50
2022/08/29 00:59:33;;;;;;;2.45;1.10;;;15.90;99.90;;;;;;5049825;28;20198;-50
2022/08/29 01:02:02;;;;;;;2.23;1.50;;;15.80;99.90;;;;;;5050554;28;20214;-51
2022/08/29 01:04:29;;;;;;;1.83;1.30;;;15.90;99.90;;;;;;5050213;28;20437;-49
2022/08/29 01:06:57;;;;;;;5.13;1.25;;;15.90;99.90;;;;;;5050075;28;20914;-49
2022/08/29 01:09:25;;;;;;;1.90;1.20;;;15.90;99.90;;;;;;5049925;28;20574;-50
2022/08/29 01:14:40;;;;;;;2.83;1.00;;;15.80;99.90;;;;;;5050050;28;20941;-50
2022/08/29 01:17:10;;;;;;;2.37;1.27;;;15.60;99.90;;;;;;5049978;28;20446;-50
2022/08/29 01:19:47;;;;;;;4.80;1.13;;;15.90;99.90;;;;;;5049268;28;20429;-49
2022/08/29 01:22:41;;;;;;;2.35;1.08;;;15.60;99.90;;;;;;5049908;28;20206;-51
2022/08/29 01:25:13;;;;;;;1.90;0.90;;;15.50;99.90;;;;;;5049989;28;20199;-52
2022/08/29 01:27:44;;;;;;;3.20;1.20;;;15.40;99.90;;;;;;5048433;28;20437;-50
2022/08/29 01:30:13;;;;;;;2.70;1.70;;;15.50;99.90;;;;;;5048906;28;20531;-50
2022/08/29 01:32:41;;;;;;;1.70;1.10;;;15.50;99.90;;;;;;5049882;28;20448;-50
2022/08/29 01:35:08;;;;;;;1.77;0.93;;;15.50;99.90;;;;;;5049435;28;20203;-49
2022/08/29 01:37:38;;;;;;;2.63;1.17;;;15.70;99.90;;;;;;5049604;28;20548;-50
2022/08/29 01:40:06;;;;;;;3.30;1.60;;;15.90;99.90;;;;;;5048879;28;20480;-52
2022/08/29 01:42:35;;;;;;;2.20;1.30;;;15.90;99.90;;;;;;5049848;28;20440;-50
2022/08/29 01:45:02;;;;;;;4.33;1.63;;;15.60;99.90;;;;;;5049705;28;20536;-50
2022/08/29 01:47:33;;;;;;;2.30;1.50;;;15.70;99.90;;;;;;5049679;28;20480;-50
2022/08/29 01:50:01;;;;;;;4.40;1.50;;;15.60;99.90;;;;;;5049253;28;20238;-50
2022/08/29 01:52:30;;;;;;;2.40;1.43;;;15.40;99.90;;;;;;5047804;28;20198;-50
2022/08/29 01:54:58;;;;;;;2.53;1.10;;;15.20;99.90;;;;;;5049501;28;20432;-50
2022/08/29 01:57:25;;;;;;;1.77;1.20;;;15.40;99.90;;;;;;5049434;28;20489;-49
2022/08/29 01:59:53;;;;;;;1.40;0.87;;;15.70;99.90;;;;;;5048918;28;20756;-50
2022/08/29 02:02:23;;;;;;;1.87;0.90;;;15.90;99.90;;;;;;5049414;28;20449;-50
2022/08/29 02:04:50;;;;;;;1.63;1.20;;;16.00;99.90;;;;;;5049671;28;20464;-49
2022/08/29 02:07:20;;;;;;;1.80;1.20;;;15.70;99.90;;;;;;5049547;28;20946;-50
2022/08/29 02:09:47;;;;;;;4.53;1.30;;;15.40;99.90;;;;;;5048649;28;20477;-49
2022/08/29 02:12:16;;;;;;;4.23;1.20;;;15.50;99.90;;;;;;5049688;28;20448;-49
2022/08/29 02:14:44;;;;;;;1.40;1.10;;;15.30;99.90;;;;;;5049619;28;20465;-51
2022/08/29 02:17:12;;;;;;;1.70;1.00;;;15.40;99.90;;;;;;5049232;28;20436;-50
2022/08/29 02:19:40;;;;;;;2.33;1.20;;;15.40;99.90;;;;;;5048543;28;20672;-50
2022/08/29 02:22:08;;;;;;;3.10;0.90;;;15.20;99.90;;;;;;5049422;28;20540;-50
2022/08/29 02:24:35;;;;;;;2.47;1.00;;;15.00;99.90;;;;;;5049246;28;20430;-50
2022/08/29 02:27:03;;;;;;;1.70;1.00;;;15.30;99.90;;;;;;5048800;28;20934;-50
2022/08/29 02:29:30;;;;;;;1.70;1.60;;;15.40;99.90;;;;;;5048397;28;20546;-50
2022/08/29 02:31:57;;;;;;;2.40;1.70;;;15.50;99.90;;;;;;5048941;28;20978;-50
2022/08/29 02:34:29;;;;;;;2.40;1.00;;;15.70;99.90;;;;;;5049326;28;20513;-51
2022/08/29 02:36:58;;;;;;;2.03;1.23;;;15.50;99.90;;;;;;5048678;28;20437;-51
2022/08/29 02:39:25;;;;;;;1.97;1.07;;;15.40;99.90;;;;;;5050535;28;20541;-50
2022/08/29 02:41:52;;;;;;;3.87;1.20;;;15.20;99.90;;;;;;5052820;28;20500;-50
2022/08/29 02:44:20;;;;;;;1.80;1.27;;;15.00;99.90;;;;;;5052750;28;20545;-50
2022/08/29 02:46:47;;;;;;;1.73;1.00;;;14.90;99.90;;;;;;5052777;28;20298;-51
2022/08/29 02:49:14;;;;;;;2.07;1.20;;;15.30;99.90;;;;;;5051859;28;20973;-50
2022/08/29 02:51:43;;;;;;;1.90;1.23;;;15.10;99.90;;;;;;5052349;28;20449;-50
2022/08/29 02:54:10;;;;;;;2.90;1.27;;;15.10;99.90;;;;;;5051528;28;20441;-50
2022/08/29 02:56:38;;;;;;;4.73;1.13;;;15.10;99.90;;;;;;5052891;28;20449;-51
2022/08/29 02:59:07;;;;;;;6.43;1.30;;;15.30;99.90;;;;;;5052030;28;20930;-50
2022/08/29 03:01:37;;;;;;;2.03;1.13;;;15.10;99.90;;;;;;5052558;28;20457;-50
2022/08/29 03:04:04;;;;;;;2.07;1.27;;;15.00;99.90;;;;;;5052419;28;20441;-51
2022/08/29 03:06:31;;;;;;;2.13;1.33;;;15.20;99.90;;;;;;5052485;28;20473;-50
2022/08/29 03:09:00;;;;;;;2.20;1.50;;;14.90;99.90;;;;;;5051578;28;20480;-51
2022/08/29 03:11:27;;;;;;;1.90;1.03;;;15.10;99.90;;;;;;5052162;28;20461;-49
2022/08/29 03:13:54;;;;;;;1.60;1.13;;;15.30;99.90;;;;;;5052318;28;20473;-50
2022/08/29 03:16:21;;;;;;;2.43;1.07;;;15.70;99.90;;;;;;5052296;28;20425;-50
2022/08/29 03:18:48;;;;;;;3.10;1.43;;;15.20;99.90;;;;;;5051585;28;20441;-50
2022/08/29 03:21:18;;;;;;;3.40;1.20;;;15.00;99.90;;;;;;5052189;28;20492;-51
2022/08/29 03:23:45;;;;;;;3.20;1.50;;;15.40;99.90;;;;;;5052129;28;20456;-52
2022/08/29 03:26:14;;;;;;;1.47;0.80;;;15.10;99.90;;;;;;5051523;28;20454;-50
2022/08/29 03:28:41;;;;;;;2.40;1.20;;;15.20;99.90;;;;;;5051489;28;20445;-48
2022/08/29 03:31:08;;;;;;;1.97;0.87;;;15.10;99.90;;;;;;5051533;28;20464;-50
2022/08/29 03:33:35;;;;;;;2.20;1.13;;;15.30;99.90;;;;;;5051966;28;20460;-50
2022/08/29 03:36:02;;;;;;;1.53;1.07;;;15.50;99.90;;;;;;5051409;28;20935;-50
2022/08/29 03:38:29;;;;;;;1.60;1.20;;;15.30;99.90;;;;;;5051817;28;20796;-50
2022/08/29 03:40:56;;;;;;;2.30;1.43;;;15.30;99.90;;;;;;5051108;28;20469;-50
2022/08/29 03:43:25;;;;;;;2.60;1.03;;;15.00;99.90;;;;;;5051504;28;20434;-50
2022/08/29 03:45:53;;;;;;;2.30;1.10;;;15.00;99.90;;;;;;5051798;28;20512;-50
2022/08/29 03:48:20;;;;;;;1.63;1.30;;;14.70;99.90;;;;;;5052125;28;20449;-50
2022/08/29 03:50:47;;;;;;;3.20;1.33;;;15.00;99.90;;;;;;5049771;28;20522;-50
2022/08/29 03:53:14;;;;;;;3.53;1.43;;;15.30;99.90;;;;;;5050527;28;20451;-50
2022/08/29 03:55:41;;;;;;;4.30;1.38;;;15.20;99.90;;;;;;5051465;28;20443;-50
2022/08/29 03:58:08;;;;;;;3.67;1.07;;;15.00;99.90;;;;;;5051528;28;20202;-50
2022/08/29 04:00:37;;;;;;;2.10;1.10;;;14.80;99.90;;;;;;5050520;28;20461;-50
2022/08/29 04:03:04;;;;;;;2.23;1.20;;;15.00;99.90;;;;;;5051261;28;20466;-50
2022/08/29 04:05:31;;;;;;;2.90;1.10;;;14.80;99.90;;;;;;5051333;28;20445;-49
2022/08/29 04:07:59;;;;;;;2.10;1.10;;;15.10;99.90;;;;;;5051356;28;20704;-50
2022/08/29 04:10:29;;;;;;;2.30;1.30;;;15.00;99.90;;;;;;5050334;28;20488;-50
2022/08/29 04:12:56;;;;;;;10.13;1.30;;;14.80;99.90;;;;;;5050978;28;20456;-50
2022/08/29 04:15:23;;;;;;;2.20;1.30;;;14.80;99.90;;;;;;5051163;28;20446;-49
2022/08/29 04:17:54;;;;;;;3.60;1.43;;;15.00;99.90;;;;;;5051265;28;20456;-50
2022/08/29 04:20:22;;;;;;;3.00;0.90;;;15.00;99.90;;;;;;5051440;28;20617;-51
2022/08/29 04:22:49;;;;;;;1.80;1.00;;;14.90;99.90;;;;;;5050805;28;20260;-49
2022/08/29 04:25:17;;;;;;;1.87;1.20;;;14.70;99.90;;;;;;5050727;28;20499;-49
2022/08/29 04:27:44;;;;;;;1.60;1.10;;;14.70;99.90;;;;;;5050196;28;20469;-49
2022/08/29 04:30:15;;;;;;;1.80;1.23;;;14.70;99.90;;;;;;5049875;28;20473;-49
2022/08/29 04:32:42;;;;;;;1.47;0.97;;;15.00;99.90;;;;;;5050611;28;20452;-49
2022/08/29 04:35:12;;;;;;;3.10;1.10;;;15.00;99.90;;;;;;5050775;28;20449;-49
2022/08/29 04:37:39;;;;;;;2.60;1.10;;;14.80;99.90;;;;;;5050023;28;20457;-49
2022/08/29 04:40:08;;;;;;;1.83;1.17;;;14.90;99.90;;;;;;5049988;28;21012;-49
2022/08/29 04:42:36;;;;;;;1.20;0.70;;;15.00;99.90;;;;;;5050488;28;20550;-50
2022/08/29 04:45:04;;;;;;;1.90;1.00;;;15.30;99.90;;;;;;5050646;28;20195;-49
2022/08/29 04:47:31;;;;;;;1.90;1.30;;;15.00;99.90;;;;;;5050541;28;20440;-49
2022/08/29 04:49:58;;;;;;;1.90;1.20;;;15.20;99.90;;;;;;5049474;28;20994;-50
2022/08/29 04:52:27;;;;;;;1.50;0.90;;;15.20;99.90;;;;;;5048752;28;21007;-49
2022/08/29 04:54:55;;;;;;;1.40;1.03;;;15.20;99.90;;;;;;5050353;28;20457;-49
2022/08/29 04:57:23;;;;;;;2.07;1.30;;;14.80;99.90;;;;;;5050538;28;20496;-49
2022/08/29 04:59:54;;;;;;;2.90;1.23;;;14.80;99.90;;;;;;5049520;28;20490;-49
2022/08/29 05:02:21;;;;;;;3.67;1.37;;;14.80;99.90;;;;;;5050154;28;20445;-49
2022/08/29 05:04:51;;;;;;;1.97;1.10;;;14.90;99.90;;;;;;5050186;28;20862;-49
2022/08/29 05:07:20;;;;;;;2.20;1.43;;;14.90;99.90;;;;;;5050036;28;20434;-49
2022/08/29 05:09:49;;;;;;;2.43;1.47;;;14.70;99.90;;;;;;5049344;28;20477;-49
2022/08/29 05:12:17;;;;;;;1.67;1.10;;;14.80;99.90;;;;;;5049964;28;20433;-50
2022/08/29 05:14:44;;;;;;;1.53;1.00;;;14.90;99.90;;;;;;5050229;28;20809;-48
2022/08/29 05:17:11;;;;;;;2.10;1.20;;;14.90;99.90;;;;;;5050019;28;20461;-49
2022/08/29 05:19:42;;;;;;;2.37;1.27;;;15.00;99.90;;;;;;5049368;28;20941;-49
2022/08/29 05:22:09;;;;;;;1.50;0.90;;;15.20;99.90;;;;;;5049442;28;20837;-49
2022/08/29 05:24:37;;;;;;;1.50;0.93;;;15.20;99.90;;;;;;5049720;28;20479;-50
2022/08/29 05:27:10;;;;;;;2.03;1.30;;;15.10;99.90;;;;;;5049163;28;20430;-49
2022/08/29 05:29:39;;;;;;;2.13;1.40;;;15.20;99.90;;;;;;5049076;28;20870;-49
2022/08/29 05:32:07;;;;;;;1.90;1.20;;;14.90;99.90;;;;;;5049627;28;20445;-49
2022/08/29 05:34:34;;;;;;;2.07;1.00;;;14.80;99.90;;;;;;5049888;28;20503;-49
2022/08/29 05:37:02;;;;;;;2.33;1.53;;;14.80;99.90;;;;;;5049251;28;20893;-51
2022/08/29 05:39:29;;;;;;;1.60;1.23;;;15.20;99.90;;;;;;5048978;28;20460;-50
2022/08/29 05:41:57;;;;;;;2.67;1.80;;;15.30;99.90;;;;;;5049578;28;20473;-50
2022/08/29 05:44:28;;;;;;;2.73;1.60;;;15.20;99.90;;;;;;5049883;28;20491;-49
2022/08/29 05:46:55;;;;;;;2.50;1.80;;;14.90;99.90;;;;;;5049827;28;20507;-49
2022/08/29 05:49:22;;;;;;;1.90;1.20;;;15.00;99.90;;;;;;5048885;28;20453;-50
2022/08/29 05:51:52;;;;;;;6.07;1.40;;;15.20;99.90;;;;;;5049292;28;20488;-49
2022/08/29 05:54:19;;;;;;;1.93;1.40;;;15.50;99.90;;;;;;5048971;28;20449;-49
2022/08/29 05:56:46;;;;;;;4.20;1.60;;;15.70;99.90;;;;;;5048517;28;20436;-49
2022/08/29 05:59:13;;;;;;;2.23;1.50;;;15.80;99.90;;;;;;5048518;28;20672;-51
2022/08/29 06:01:41;;;;;;;3.27;1.40;;;15.80;99.90;;;;;;5049328;28;20493;-49
2022/08/29 06:04:09;;;;;;;1.93;1.60;;;15.90;99.90;;;;;;5047852;28;20454;-49
2022/08/29 06:06:36;;;;;;;2.10;1.63;;;16.00;99.90;;;;;;5048822;28;20457;-49
2022/08/29 06:09:03;;;;;;;2.27;1.50;;;15.60;99.90;;;;;;5048825;28;20583;-49
2022/08/29 06:11:32;;;;;;;3.30;1.80;;;15.20;99.90;;;;;;5049013;28;20485;-49
2022/08/29 06:14:00;;;;;;;2.20;1.30;;;14.70;99.90;;;;;;5050871;28;20482;-49
2022/08/29 06:16:29;;;;;;;2.20;1.50;;;14.60;99.90;;;;;;5053544;28;20571;-50
2022/08/29 06:18:58;;;;;;;7.83;2.17;;;14.70;99.90;;;;;;5052917;28;20430;-50
2022/08/29 06:21:25;;;;;;;1.67;1.27;;;15.10;99.90;;;;;;5052923;28;21271;-48
2022/08/29 06:23:52;;;;;;;1.87;1.47;;;15.30;99.90;;;;;;5052968;28;20440;-50
2022/08/29 06:26:19;;;;;;;3.05;1.48;;;15.50;99.90;;;;;;5052910;28;20457;-49
2022/08/29 06:28:47;;;;;;;2.17;1.67;;;15.50;99.90;;;;;;5052450;28;20220;-49
2022/08/29 06:31:19;;;;;;;2.47;1.50;;;15.60;99.90;;;;;;5052784;28;20729;-49
2022/08/29 06:33:46;;;;;;;4.35;1.67;;;15.60;99.90;;;;;;5053151;28;20513;-49
2022/08/29 06:36:14;;;;;;;5.03;1.80;;;15.40;99.90;;;;;;5052977;28;20203;-49
2022/08/29 06:38:41;;;;;;;2.47;1.77;;;15.10;99.90;;;;;;5052462;28;20442;-49
2022/08/29 06:41:11;;;;;;;2.87;1.60;;;14.90;99.90;;;;;;5052779;28;20861;-47
2022/08/29 06:43:39;;;;;;;2.20;1.67;;;14.90;99.90;;;;;;5052929;28;20468;-49
2022/08/29 06:46:06;;;;;;;3.10;2.00;;;14.90;99.90;;;;;;5052892;28;20484;-49
2022/08/29 06:48:33;;;;;;;2.80;1.27;;;14.90;99.90;;;;;;5052762;28;20503;-49
2022/08/29 06:51:01;;;;;;;2.60;1.50;;;14.90;99.90;;;;;;5052361;28;20882;-49
2022/08/29 06:53:29;;;;;;;5.80;1.70;;;14.90;99.90;;;;;;5052773;28;20449;-49
2022/08/29 06:55:56;;;;;;;2.90;1.83;;;15.20;99.90;;;;;;5052566;28;20454;-50
2022/08/29 06:58:23;;;;;;;1.90;1.20;;;15.30;99.90;;;;;;5052722;28;20454;-49
2022/08/29 07:00:50;;;;;;;2.87;1.43;;;15.30;99.90;;;;;;5051872;28;20477;-50
2022/08/29 07:03:18;;;;;;;2.67;1.57;;;15.60;99.90;;;;;;5050775;28;20934;-49
2022/08/29 07:05:51;;;;;;;7.27;1.67;;;15.50;99.90;;;;;;5051813;28;20734;-50
2022/08/29 07:08:18;;;;;;;2.93;1.50;;;15.60;99.90;;;;;;5052884;28;20445;-49
2022/08/29 07:10:47;;;;;;;2.20;1.20;;;15.70;99.90;;;;;;5051529;28;20488;-50
2022/08/29 07:13:14;;;;;;;2.03;1.33;;;15.80;99.90;;;;;;5052288;28;20426;-48
2022/08/29 07:15:42;;;;;;;2.37;1.60;;;16.00;99.90;;;;;;5052201;28;20457;-49
2022/08/29 07:18:09;;;;;;;2.10;1.70;;;16.10;99.90;;;;;;5051987;28;20930;-49
2022/08/29 07:20:38;;;;;;;2.80;1.50;;;16.30;99.90;;;;;;5051252;28;20466;-49
2022/08/29 07:23:05;;;;;;;1.93;1.50;;;16.30;99.90;;;;;;5051851;28;20507;-49
2022/08/29 07:25:33;;;;;;;2.10;1.30;;;16.50;99.90;;;;;;5050725;28;20839;-51
2022/08/29 07:28:02;;;;;;;1.70;1.10;;;16.80;99.90;;;;;;5051371;28;20456;-49
2022/08/29 07:30:29;;;;;;;2.30;1.60;;;16.90;99.90;;;;;;5051149;28;20273;-50
2022/08/29 07:32:56;;;;;;;2.20;1.67;;;17.00;99.90;;;;;;5051907;28;20506;-49
2022/08/29 07:35:24;;;;;;;1.27;1.03;;;16.90;99.90;;;;;;5052038;28;20849;-49
2022/08/29 07:37:51;;;;;;;1.90;1.30;;;16.90;99.90;;;;;;5051851;28;20476;-52
2022/08/29 07:40:18;;;;;;;2.53;1.47;;;16.60;99.90;;;;;;5051104;28;20465;-48
2022/08/29 07:42:45;;;;;;;3.40;1.67;;;16.70;99.90;;;;;;5051823;28;20429;-49
2022/08/29 07:45:16;;;;;;;3.43;2.07;;;16.90;99.90;;;;;;5051707;28;20511;-49
2022/08/29 07:47:44;;;;;;;5.80;2.30;;;17.20;99.90;;;;;;5052098;28;20461;-50
2022/08/29 07:50:13;;;;;;;1.90;1.60;;;17.40;99.90;;;;;;5050775;28;20808;-49
2022/08/29 07:52:41;;;;;;;3.80;1.97;;;17.60;99.90;;;;;;5051388;28;20469;-50
2022/08/29 07:55:09;;;;;;;1.97;1.47;;;17.50;99.90;;;;;;5051747;28;20822;-51
2022/08/29 07:57:36;;;;;;;4.50;1.83;;;17.30;99.90;;;;;;5051956;28;20567;-48
2022/08/29 08:00:05;;;;;;;2.37;1.87;;;17.50;99.90;;;;;;5051008;28;20218;-49
2022/08/29 08:02:34;;;;;;;2.70;1.57;;;17.50;99.90;;;;;;5050017;28;20457;-50
2022/08/29 08:05:01;;;;;;;2.47;1.40;;;17.50;99.90;;;;;;5051570;28;20495;-50
2022/08/29 08:07:28;;;;;;;2.20;1.50;;;17.60;99.90;;;;;;5050941;28;20458;-49
2022/08/29 08:09:55;;;;;;;2.80;1.60;;;17.50;99.90;;;;;;5050367;28;20826;-49
2022/08/29 08:12:24;;;;;;;1.67;1.30;;;17.60;99.90;;;;;;5050956;28;20471;-49
2022/08/29 08:14:51;;;;;;;2.27;1.43;;;17.80;99.90;;;;;;5051245;28;20481;-49
2022/08/29 08:17:18;;;;;;;2.23;1.40;;;17.80;99.90;;;;;;5051146;28;20449;-51
2022/08/29 08:19:47;;;;;;;2.37;1.50;;;17.80;99.90;;;;;;5050556;28;20949;-50
2022/08/29 08:22:14;;;;;;;3.73;2.00;;;17.80;99.90;;;;;;5050592;28;20823;-49
2022/08/29 08:24:41;;;;;;;2.60;1.60;;;17.80;99.90;;;;;;5051186;28;20441;-49
2022/08/29 08:27:08;;;;;;;2.10;1.70;;;17.90;99.90;;;;;;5050322;28;20430;-49
2022/08/29 08:29:35;;;;;;;2.70;1.60;;;18.00;99.90;;;;;;5050157;28;20442;-49
2022/08/29 08:32:02;;;;;;;2.70;2.17;;;18.10;99.90;;;;;;5050926;28;20477;-49
2022/08/29 08:34:29;;;;;;;4.30;1.70;;;18.40;99.90;;;;;;5050654;28;20437;-49
2022/08/29 08:36:58;;;;;;;3.00;1.50;;;18.50;99.90;;;;;;5050386;28;20806;-49
2022/08/29 08:39:25;;;;;;;3.63;2.40;;;18.40;99.90;;;;;;5049999;28;20453;-51
2022/08/29 08:41:55;;;;;;;2.47;1.50;;;18.40;99.90;;;;;;5050518;28;20469;-49
2022/08/29 08:44:56;;;;;;;5.53;2.08;;;18.50;99.90;;;;;;5050643;28;20453;-49
2022/08/29 08:47:28;;;;;;;2.00;1.80;;;18.50;99.90;;;;;;5050508;28;20557;-50
2022/08/29 08:50:00;;;;;;;3.40;2.20;;;18.60;99.90;;;;;;5049790;28;20556;-51
2022/08/29 08:52:34;;;;;;;2.90;2.20;;;18.80;99.90;;;;;;5050140;28;21007;-49
2022/08/29 08:55:06;;;;;;;1.87;1.40;;;18.60;99.90;;;;;;5050266;28;20517;-49
2022/08/29 08:57:39;;;;;;;1.93;1.50;;;18.70;99.90;;;;;;5050470;28;20519;-49
2022/08/29 09:00:09;;;;;;;3.30;1.70;;;18.80;99.90;;;;;;5049603;28;20493;-49
2022/08/29 09:02:47;;;;;;;2.53;1.50;;;18.80;99.90;;;;;;5048403;28;20524;-48
2022/08/29 09:05:28;;;;;;;2.67;1.30;;;18.80;99.90;;;;;;5050192;28;20467;-50
2022/08/29 09:08:05;;;;;;;2.63;1.63;;;19.00;99.90;;;;;;5050161;28;20960;-49
2022/08/29 09:10:43;;;;;;;2.70;2.10;;;19.10;99.90;;;;;;5049371;28;20465;-49
2022/08/29 09:13:22;;;;;;;2.00;1.67;;;19.20;99.90;;;;;;5050062;28;20468;-49
2022/08/29 09:15:52;;;;;;;3.03;1.67;;;19.30;99.90;;;;;;5050617;28;20665;-49
2022/08/29 09:18:28;;;;;;;2.50;1.80;;;19.50;99.90;;;;;;5050234;28;20434;-49
2022/08/29 09:20:56;;;;;;;2.28;1.70;;;19.60;99.90;;;;;;5049425;28;21002;-49
2022/08/29 09:23:31;;;;;;;3.40;1.47;;;19.60;99.90;;;;;;5050036;28;20202;-49
2022/08/29 09:25:59;;;;;;;3.40;2.10;;;19.70;99.90;;;;;;5049130;28;21038;-49
2022/08/29 09:28:26;;;;;;;2.63;1.43;;;19.90;99.90;;;;;;5049735;28;20990;-51
2022/08/29 09:31:19;;;;;;;2.40;1.67;;;20.00;99.90;;;;;;5049087;28;21029;-50
2022/08/29 09:33:49;;;;;;;1.90;1.43;;;19.90;99.90;;;;;;5049861;28;20453;-50
2022/08/29 09:36:33;;;;;;;2.10;1.60;;;20.00;99.90;;;;;;5049598;28;20426;-50
2022/08/29 09:39:12;;;;;;;2.70;1.70;;;20.10;99.90;;;;;;5049183;28;20457;-49
2022/08/29 09:41:40;;;;;;;2.10;1.50;;;20.00;99.90;;;;;;5049700;28;20473;-50
2022/08/29 09:44:12;;;;;;;2.87;1.80;;;20.20;99.90;;;;;;5049672;28;20441;-49
2022/08/29 09:46:39;;;;;;;2.60;1.50;;;20.40;99.90;;;;;;5049691;28;20441;-50
2022/08/29 09:49:16;;;;;;;2.10;1.43;;;20.60;99.90;;;;;;5050824;28;20469;-49
2022/08/29 09:51:46;;;;;;;1.80;1.30;;;20.60;99.90;;;;;;5053562;28;20469;-52
2022/08/29 09:54:18;;;;;;;3.20;1.50;;;20.70;99.90;;;;;;5053703;28;20783;-50
2022/08/29 09:56:54;;;;;;;1.70;1.23;;;20.50;99.90;;;;;;5053891;28;20577;-50
2022/08/29 09:59:27;;;;;;;2.73;1.90;;;20.60;99.90;;;;;;5053135;28;20202;-49
2022/08/29 10:02:29;;;;;;;3.17;1.67;;;20.70;99.90;;;;;;5053727;28;20617;-49
2022/08/29 10:05:01;;;;;;;5.00;1.80;;;20.90;99.90;;;;;;4991698;28;20200;-49
2022/08/29 10:07:30;;;;;;;2.03;1.83;;;20.80;99.90;;;;;;4990840;28;20828;-51
2022/08/29 10:10:02;;;;;;;2.67;1.93;;;21.10;99.90;;;;;;5022164;28;20473;-49
2022/08/29 10:12:49;;;;;;;2.50;1.60;;;21.20;99.90;;;;;;5044172;28;20842;-50
2022/08/29 10:15:22;;;;;;;1.83;1.60;;;21.20;99.90;;;;;;5053471;28;21010;-49
2022/08/29 10:20:51;;;;;;;2.47;1.77;;;21.00;99.90;;;;;;5053458;28;20591;-49
2022/08/29 10:23:24;;;;;;;2.37;2.07;;;21.10;99.90;;;;;;5053359;28;20445;-49
2022/08/29 10:25:53;;;;;;;2.63;2.00;;;21.70;99.90;;;;;;5052967;28;20495;-49
2022/08/29 10:28:26;;;;;;;2.67;2.20;;;21.80;99.90;;;;;;5053201;28;20509;-49
2022/08/29 10:31:00;;;;;;;2.63;2.00;;;22.10;99.90;;;;;;5052487;28;20465;-50
2022/08/29 10:33:41;;;;;;;2.50;2.20;;;22.10;99.90;;;;;;5052742;28;20469;-50
2022/08/29 10:36:14;;;;;;;2.73;2.03;;;21.90;99.90;;;;;;5042305;28;20473;-49
2022/08/29 10:38:48;;;;;;;3.50;2.10;;;22.00;99.90;;;;;;5037192;28;20523;-49
2022/08/29 10:41:31;;;;;;;2.70;2.00;;;21.80;99.90;;;;;;5043420;28;20467;-50
2022/08/29 10:44:10;;;;;;;2.93;2.00;;;22.10;99.90;;;;;;5052757;28;20198;-50
2022/08/29 10:46:56;;;;;;;2.97;2.67;;;22.00;99.90;;;;;;5048987;28;20508;-49
2022/08/29 10:49:33;;;;;;;3.00;2.23;;;22.10;99.90;;;;;;5040462;28;20207;-49
2022/08/29 10:52:09;;;;;;;2.37;1.90;;;22.20;99.90;;;;;;5031908;28;20474;-50
2022/08/29 10:54:45;;;;;;;3.10;2.60;;;22.20;99.90;;;;;;5032693;28;20914;-49
2022/08/29 10:57:20;;;;;;;3.27;2.60;;;22.20;99.90;;;;;;5032362;28;20872;-49
2022/08/29 10:59:58;;;;;;;2.30;2.10;;;22.50;99.90;;;;;;5031518;28;21009;-49
2022/08/29 11:02:34;;;;;;;2.93;2.50;;;22.60;99.90;;;;;;5032309;28;20434;-49
2022/08/29 11:05:08;;;;;;;2.90;2.10;;;22.70;99.90;;;;;;5032457;28;20797;-49
2022/08/29 11:07:44;;;;;;;3.20;2.03;;;22.60;99.90;;;;;;5032519;28;20477;-49
2022/08/29 11:10:16;;;;;;;2.00;1.80;;;22.60;99.90;;;;;;5032058;28;20966;-49
2022/08/29 11:12:50;;;;;;;2.73;2.53;;;22.50;99.90;;;;;;5032779;28;20470;-49
2022/08/29 11:15:24;;;;;;;2.67;2.10;;;22.50;99.90;;;;;;5032524;28;20439;-49
2022/08/29 11:17:57;;;;;;;3.05;2.67;;;22.70;99.90;;;;;;5032204;28;20427;-49
2022/08/29 11:20:30;;;;;;;6.20;2.40;;;22.60;99.90;;;;;;5031521;28;20285;-51
2022/08/29 11:23:01;;;;;;;3.30;3.00;;;22.60;99.90;;;;;;5032678;28;20453;-50
2022/08/29 11:25:31;;;;;;;2.53;2.17;;;22.70;99.90;;;;;;5032495;28;20438;-49
2022/08/29 11:28:05;;;;;;;2.63;2.43;;;22.80;99.90;;;;;;5032479;28;20446;-50
2022/08/29 11:30:41;;;;;;;3.53;2.27;;;22.90;99.90;;;;;;5031307;28;20856;-49
2022/08/29 11:33:22;;;;;;;2.93;2.40;;;22.90;99.90;;;;;;5031767;28;20564;-49
2022/08/29 11:36:06;;;;;;;3.03;2.43;;;23.10;99.90;;;;;;5032038;28;20955;-49
2022/08/29 11:39:09;;;;;;;4.30;3.00;;;23.10;99.90;;;;;;5032042;28;20445;-49
2022/08/29 11:41:38;;;;;;;2.67;2.10;;;23.10;99.90;;;;;;5031576;28;20454;-50
2022/08/29 11:44:17;;;;;;;3.20;2.00;;;23.30;99.90;;;;;;5031793;28;20537;-49
2022/08/29 11:46:47;;;;;;;3.53;1.93;;;23.40;99.90;;;;;;5031864;28;20450;-51
2022/08/29 11:49:37;;;;;;;3.30;2.00;;;23.30;99.90;;;;;;5030954;28;20947;-50
2022/08/29 11:52:28;;;;;;;2.40;1.77;;;23.30;99.90;;;;;;5028451;28;20517;-51
2022/08/29 11:55:22;;;;;;;2.80;2.17;;;23.40;99.90;;;;;;5031693;28;20207;-50
2022/08/29 11:57:53;;;;;;;2.40;2.00;;;23.50;99.90;;;;;;5032068;28;20427;-49
2022/08/29 12:00:37;;;;;;;4.83;2.00;;;23.50;99.90;;;;;;5030618;28;20505;-50
2022/08/29 12:03:25;;;;;;;2.67;2.30;;;23.50;99.90;;;;;;5030033;28;20799;-50
2022/08/29 12:06:00;;;;;;;1.90;1.67;;;23.50;99.90;;;;;;5031427;28;20465;-49
2022/08/29 12:08:32;;;;;;;2.37;1.97;;;23.60;99.90;;;;;;5031390;28;20442;-49
2022/08/29 12:11:00;;;;;;;2.20;1.90;;;23.70;99.90;;;;;;5030085;28;20446;-51
2022/08/29 12:13:58;;;;;;;2.57;1.90;;;23.80;99.90;;;;;;5030891;28;20478;-50
2022/08/29 12:16:42;;;;;;;2.00;1.80;;;23.90;99.90;;;;;;5031291;28;20453;-50
2022/08/29 12:19:09;;;;;;;2.93;2.50;;;23.80;99.90;;;;;;5026534;28;20454;-49
2022/08/29 12:21:47;;;;;;;2.50;1.90;;;23.80;99.90;;;;;;5028990;28;21037;-50
2022/08/29 12:24:40;;;;;;;2.03;1.80;;;23.80;99.90;;;;;;5031027;28;20457;-50
2022/08/29 12:27:23;;;;;;;2.30;1.77;;;24.00;99.90;;;;;;5031005;28;20852;-50
2022/08/29 12:29:52;;;;;;;3.07;2.20;;;23.80;99.90;;;;;;5030143;28;20446;-50
2022/08/29 12:32:45;;;;;;;3.40;2.43;;;24.00;99.90;;;;;;5030655;28;20481;-49
2022/08/29 12:35:47;;;;;;;2.53;2.10;;;23.80;99.90;;;;;;5030937;28;20492;-49
2022/08/29 12:38:28;;;;;;;4.63;2.20;;;23.90;99.90;;;;;;5030880;28;20441;-50
2022/08/29 12:41:14;;;;;;;3.57;2.40;;;24.10;99.90;;;;;;5029888;28;20492;-50
2022/08/29 12:43:44;;;;;;;2.70;1.60;;;24.10;99.90;;;;;;5030723;28;20935;-50
2022/08/29 12:46:18;;;;;;;2.60;2.10;;;24.20;99.90;;;;;;5030504;28;20437;-50
2022/08/29 12:48:54;;;;;;;3.40;2.40;;;24.20;99.90;;;;;;5029746;28;20922;-50
2022/08/29 12:51:36;;;;;;;2.45;1.80;;;24.20;99.90;;;;;;5030390;28;20515;-50
2022/08/29 12:54:03;;;;;;;2.70;2.10;;;24.30;99.90;;;;;;5030589;28;20257;-49
2022/08/29 12:56:30;;;;;;;6.83;2.20;;;24.20;99.90;;;;;;5030144;28;20812;-49
2022/08/29 12:59:00;;;;;;;2.30;2.10;;;24.40;99.90;;;;;;5029610;28;20442;-50
2022/08/29 13:01:30;;;;;;;3.70;2.20;;;24.30;99.90;;;;;;5030136;28;20458;-51
2022/08/29 13:04:01;;;;;;;2.80;1.73;;;24.30;99.90;;;;;;5029294;28;20434;-50
2022/08/29 13:06:28;;;;;;;3.30;2.60;;;24.40;99.90;;;;;;5030314;28;20446;-49
2022/08/29 13:08:55;;;;;;;5.33;2.00;;;24.50;99.90;;;;;;5029467;28;20975;-50
2022/08/29 13:11:26;;;;;;;2.20;1.90;;;24.50;99.90;;;;;;5029920;28;20708;-49